createdAt,value
2022-10-17T00:01:09.976Z,3.10
2022-10-17T00:03:41.036Z,3.28
2022-10-17T00:06:10.404Z,3.28
2022-10-17T00:08:41.338Z,3.00
2022-10-17T00:11:13.918Z,3.55
2022-10-17T00:16:10.175Z,4.15
2022-10-17T00:18:39.549Z,3.08
2022-10-17T00:21:07.669Z,3.40
2022-10-17T00:23:35.436Z,3.08
2022-10-17T00:26:05.679Z,3.20
2022-10-17T00:28:33.627Z,2.90
2022-10-17T00:31:03.099Z,3.10
2022-10-17T00:33:34.608Z,3.00
2022-10-17T00:36:08.660Z,3.80
2022-10-17T00:38:38.672Z,3.30
2022-10-17T00:41:07.594Z,3.00
2022-10-17T00:43:54.888Z,2.95
2022-10-17T00:46:23.957Z,3.03
2022-10-17T00:48:54.796Z,3.25
2022-10-17T00:51:32.272Z,3.10
2022-10-17T00:54:01.512Z,2.90
2022-10-17T00:56:29.416Z,2.80
2022-10-17T00:58:57.451Z,2.58
2022-10-17T01:01:25.460Z,2.60
2022-10-17T01:03:55.879Z,2.42
2022-10-17T01:06:25.070Z,2.75
2022-10-17T01:08:56.780Z,2.28
2022-10-17T01:11:37.225Z,3.03
2022-10-17T01:14:10.265Z,2.67
2022-10-17T01:16:49.020Z,2.30
2022-10-17T01:19:37.046Z,2.40
2022-10-17T01:22:11.199Z,2.58
2022-10-17T01:24:52.383Z,2.35
2022-10-17T01:27:37.970Z,2.40
2022-10-17T01:30:36.380Z,3.10
2022-10-17T01:33:12.267Z,2.70
2022-10-17T01:35:45.781Z,2.63
2022-10-17T01:38:19.532Z,2.47
2022-10-17T01:40:51.970Z,2.42
2022-10-17T01:43:23.680Z,2.40
2022-10-17T01:45:57.211Z,2.40
2022-10-17T01:48:31.081Z,2.60
2022-10-17T01:51:04.797Z,2.38
2022-10-17T01:53:35.825Z,2.20
2022-10-17T01:56:05.692Z,2.42
2022-10-17T01:58:38.691Z,2.70
2022-10-17T02:01:10.778Z,2.65
2022-10-17T02:03:43.958Z,2.90
2022-10-17T02:06:11.999Z,2.83
2022-10-17T02:08:44.928Z,3.05
2022-10-17T02:11:16.132Z,2.83
2022-10-17T02:14:00.354Z,2.72
2022-10-17T02:16:36.948Z,2.35
2022-10-17T02:19:20.170Z,2.42
2022-10-17T02:21:53.840Z,2.40
2022-10-17T02:24:31.786Z,3.03
2022-10-17T02:27:07.295Z,3.25
2022-10-17T02:29:40.601Z,3.00
2022-10-17T02:32:11.854Z,2.75
2022-10-17T02:34:44.000Z,2.33
2022-10-17T02:37:16.299Z,2.63
2022-10-17T02:39:45.171Z,2.58
2022-10-17T02:42:15.198Z,2.45
2022-10-17T02:44:45.879Z,2.33
2022-10-17T02:47:22.414Z,2.20
2022-10-17T02:49:54.517Z,2.38
2022-10-17T02:52:28.632Z,2.55
2022-10-17T02:55:01.414Z,2.13
2022-10-17T02:57:35.932Z,2.30
2022-10-17T03:00:07.669Z,2.28
2022-10-17T03:02:41.174Z,2.03
2022-10-17T03:05:12.001Z,2.53
2022-10-17T03:07:39.962Z,2.75
2022-10-17T03:10:08.266Z,2.75
2022-10-17T03:12:35.966Z,2.30
2022-10-17T03:15:03.811Z,2.30
2022-10-17T03:17:31.587Z,2.30
2022-10-17T03:19:59.474Z,2.40
2022-10-17T03:22:28.790Z,2.63
2022-10-17T03:24:57.675Z,2.65
2022-10-17T03:27:25.920Z,2.53
2022-10-17T03:29:54.277Z,2.90
2022-10-17T03:32:21.978Z,3.15
2022-10-17T03:34:49.641Z,2.55
2022-10-17T03:37:17.448Z,2.83
2022-10-17T03:39:46.594Z,3.70
2022-10-17T03:42:14.288Z,2.60
2022-10-17T03:44:42.335Z,2.30
2022-10-17T03:47:11.919Z,2.30
2022-10-17T03:49:41.916Z,2.30
2022-10-17T03:52:12.321Z,2.30
2022-10-17T03:54:40.292Z,2.33
2022-10-17T03:57:09.299Z,2.65
2022-10-17T03:59:36.974Z,2.10
2022-10-17T04:02:04.662Z,2.03
2022-10-17T04:04:32.307Z,2.97
2022-10-17T04:07:00.079Z,2.45
2022-10-17T04:09:27.991Z,2.00
2022-10-17T04:11:58.155Z,2.50
2022-10-17T04:14:27.273Z,2.22
2022-10-17T04:16:56.243Z,2.67
2022-10-17T04:19:25.743Z,3.10
2022-10-17T04:21:53.499Z,3.05
2022-10-17T04:24:21.264Z,2.40
2022-10-17T04:26:51.046Z,2.72
2022-10-17T04:29:18.691Z,2.53
2022-10-17T04:31:47.816Z,2.42
2022-10-17T04:34:15.582Z,2.90
2022-10-17T04:36:43.430Z,2.67
2022-10-17T04:39:11.234Z,2.55
2022-10-17T04:41:39.182Z,2.83
2022-10-17T04:44:07.202Z,2.60
2022-10-17T04:46:36.497Z,2.63
2022-10-17T04:49:05.846Z,2.35
2022-10-17T04:51:33.572Z,2.58
2022-10-17T04:54:01.321Z,2.60
2022-10-17T04:56:29.187Z,2.88
2022-10-17T04:58:57.447Z,2.65
2022-10-17T05:01:25.287Z,2.50
2022-10-17T05:03:53.211Z,2.75
2022-10-17T05:06:24.537Z,2.50
2022-10-17T05:08:52.833Z,3.80
2022-10-17T05:11:22.431Z,3.45
2022-10-17T05:13:54.398Z,3.15
2022-10-17T05:16:23.978Z,2.28
2022-10-17T05:18:53.243Z,2.40
2022-10-17T05:21:25.602Z,2.42
2022-10-17T05:23:53.623Z,2.05
2022-10-17T05:26:21.662Z,2.28
2022-10-17T05:28:49.394Z,2.67
2022-10-17T05:31:17.038Z,2.30
2022-10-17T05:33:44.684Z,2.70
2022-10-17T05:36:12.344Z,2.70
2022-10-17T05:38:41.327Z,2.92
2022-10-17T05:41:09.086Z,2.85
2022-10-17T05:43:36.826Z,2.45
2022-10-17T05:46:06.560Z,2.28
2022-10-17T05:48:34.669Z,2.63
2022-10-17T05:51:07.880Z,3.25
2022-10-17T05:53:37.365Z,2.80
2022-10-17T05:56:08.248Z,2.58
2022-10-17T05:58:49.803Z,3.17
2022-10-17T06:03:46.537Z,2.65
2022-10-17T06:06:15.593Z,2.92
2022-10-17T06:08:43.625Z,2.78
2022-10-17T06:11:13.080Z,3.00
2022-10-17T06:13:41.308Z,3.00
2022-10-17T06:16:09.225Z,3.47
2022-10-17T06:18:37.062Z,2.78
2022-10-17T06:21:05.639Z,3.33
2022-10-17T06:23:38.221Z,3.70
2022-10-17T06:28:36.284Z,3.08
2022-10-17T06:31:06.332Z,3.80
2022-10-17T06:33:34.052Z,4.00
2022-10-17T06:36:01.831Z,3.22
2022-10-17T06:38:29.456Z,3.28
2022-10-17T06:41:04.907Z,4.00
2022-10-17T06:43:32.638Z,3.65
2022-10-17T06:46:01.687Z,3.70
2022-10-17T06:48:29.433Z,4.00
2022-10-17T06:51:00.001Z,4.53
2022-10-17T06:53:28.718Z,4.10
2022-10-17T06:56:01.221Z,4.20
2022-10-17T06:58:29.254Z,4.28
2022-10-17T07:01:01.701Z,4.35
2022-10-17T07:03:30.135Z,4.72
2022-10-17T07:05:58.570Z,5.00
2022-10-17T07:08:26.609Z,4.93
2022-10-17T07:10:58.693Z,4.72
2022-10-17T07:13:26.554Z,4.75
2022-10-17T07:16:01.660Z,4.80
2022-10-17T07:18:30.661Z,6.63
2022-10-17T07:21:01.497Z,5.97
2022-10-17T07:23:29.473Z,7.07
2022-10-17T07:26:00.786Z,6.22
2022-10-17T07:28:28.892Z,5.60
2022-10-17T07:30:56.802Z,4.95
2022-10-17T07:33:24.561Z,5.28
2022-10-17T07:35:54.742Z,5.88
2022-10-17T07:38:22.539Z,5.47
2022-10-17T07:40:55.619Z,5.35
2022-10-17T07:43:23.835Z,5.40
2022-10-17T07:45:54.019Z,5.28
2022-10-17T07:48:24.162Z,4.47
2022-10-17T07:51:11.487Z,4.43
2022-10-17T07:53:45.112Z,5.05
2022-10-17T07:56:15.804Z,5.20
2022-10-17T07:58:43.444Z,5.63
2022-10-17T08:01:15.507Z,5.50
2022-10-17T08:03:46.484Z,4.63
2022-10-17T08:06:16.199Z,5.45
2022-10-17T08:08:44.139Z,4.88
2022-10-17T08:11:13.089Z,4.80
2022-10-17T08:13:41.433Z,5.20
2022-10-17T08:16:11.873Z,4.70
2022-10-17T08:18:41.386Z,4.88
2022-10-17T08:21:09.373Z,4.90
2022-10-17T08:23:38.477Z,4.25
2022-10-17T08:26:10.402Z,4.43
2022-10-17T08:28:39.375Z,4.85
2022-10-17T08:31:08.774Z,5.00
2022-10-17T08:33:36.584Z,4.90
2022-10-17T08:36:06.081Z,4.80
2022-10-17T08:38:37.582Z,5.18
2022-10-17T08:41:14.132Z,5.47
2022-10-17T08:43:52.803Z,4.90
2022-10-17T08:46:21.150Z,5.00
2022-10-17T08:48:52.570Z,4.75
2022-10-17T08:51:24.100Z,4.10
2022-10-17T08:53:56.961Z,5.80
2022-10-17T08:56:44.429Z,4.18
2022-10-17T08:59:19.859Z,4.10
2022-10-17T09:01:52.004Z,4.32
2022-10-17T09:04:47.415Z,4.53
2022-10-17T09:07:23.391Z,3.47
2022-10-17T09:10:05.913Z,4.00
2022-10-17T09:15:44.195Z,3.78
2022-10-17T09:18:18.689Z,3.08
2022-10-17T09:20:52.820Z,3.28
2022-10-17T09:23:24.037Z,3.20
2022-10-17T09:25:55.019Z,3.30
2022-10-17T09:28:28.926Z,3.15
2022-10-17T09:31:00.619Z,2.80
2022-10-17T09:33:35.345Z,2.80
2022-10-17T09:36:16.077Z,2.92
2022-10-17T09:38:45.730Z,3.40
2022-10-17T09:41:45.389Z,3.00
2022-10-17T09:44:18.305Z,3.22
2022-10-17T09:47:05.625Z,3.00
2022-10-17T09:49:35.229Z,2.92
2022-10-17T09:52:04.851Z,3.20
2022-10-17T09:54:43.100Z,3.33
2022-10-17T09:57:12.413Z,3.13
2022-10-17T09:59:45.187Z,2.88
2022-10-17T10:02:22.127Z,2.83
2022-10-17T10:05:06.973Z,2.78
2022-10-17T10:07:37.438Z,2.97
2022-10-17T10:10:08.057Z,3.42
2022-10-17T10:12:38.533Z,2.70
2022-10-17T10:15:33.202Z,3.13
2022-10-17T10:18:00.851Z,2.78
2022-10-17T10:20:32.230Z,2.83
2022-10-17T10:23:24.286Z,2.77
2022-10-17T10:25:57.491Z,2.70
2022-10-17T10:28:29.068Z,2.55
2022-10-17T10:31:01.307Z,2.70
2022-10-17T10:33:30.903Z,2.53
2022-10-17T10:36:01.687Z,2.85
2022-10-17T10:38:30.284Z,2.83
2022-10-17T10:41:03.944Z,2.60
2022-10-17T10:43:36.843Z,3.00
2022-10-17T10:46:16.691Z,3.20
2022-10-17T10:48:52.627Z,3.28
2022-10-17T10:51:24.440Z,3.05
2022-10-17T10:54:00.475Z,2.78
2022-10-17T10:56:34.537Z,2.95
2022-10-17T10:59:05.844Z,3.10
2022-10-17T11:01:41.459Z,3.13
2022-10-17T11:04:28.235Z,2.80
2022-10-17T11:07:02.135Z,3.00
2022-10-17T11:09:47.370Z,2.75
2022-10-17T11:12:22.022Z,2.78
2022-10-17T11:14:54.762Z,2.70
2022-10-17T11:17:32.036Z,2.63
2022-10-17T11:20:08.211Z,2.63
2022-10-17T11:22:40.395Z,2.20
2022-10-17T11:25:31.581Z,2.90
2022-10-17T11:28:04.502Z,2.60
2022-10-17T11:30:42.318Z,2.20
2022-10-17T11:33:16.340Z,2.10
2022-10-17T11:35:47.118Z,2.20
2022-10-17T11:38:19.620Z,2.22
2022-10-17T11:40:51.228Z,2.30
2022-10-17T11:43:26.205Z,2.10
2022-10-17T11:45:58.496Z,2.25
2022-10-17T11:48:33.057Z,2.47
2022-10-17T11:54:01.352Z,2.30
2022-10-17T11:56:42.699Z,2.35
2022-10-17T11:59:33.598Z,1.90
2022-10-17T12:02:06.062Z,2.05
2022-10-17T12:04:49.433Z,1.98
2022-10-17T12:07:22.159Z,2.15
2022-10-17T12:09:56.173Z,2.03
2022-10-17T12:12:29.381Z,2.50
2022-10-17T12:15:31.067Z,2.03
2022-10-17T12:18:02.530Z,2.37
2022-10-17T12:20:41.108Z,2.10
2022-10-17T12:23:26.075Z,2.25
2022-10-17T12:25:57.126Z,2.40
2022-10-17T12:28:31.266Z,2.17
2022-10-17T12:31:02.088Z,2.33
2022-10-17T12:33:34.345Z,2.00
2022-10-17T12:36:49.781Z,1.92
2022-10-17T12:39:45.042Z,2.10
2022-10-17T12:42:33.088Z,2.20
2022-10-17T12:45:00.769Z,2.10
2022-10-17T12:47:37.414Z,2.10
2022-10-17T12:50:25.660Z,1.90
2022-10-17T12:53:03.728Z,2.40
2022-10-17T12:55:32.884Z,2.00
2022-10-17T12:58:03.103Z,2.10
2022-10-17T13:00:36.965Z,1.75
2022-10-17T13:03:11.754Z,2.03
2022-10-17T13:05:42.773Z,2.13
2022-10-17T13:08:17.874Z,2.20
2022-10-17T13:10:51.787Z,2.00
2022-10-17T13:13:23.210Z,1.90
2022-10-17T13:15:52.868Z,1.85
2022-10-17T13:18:22.889Z,1.70
2022-10-17T13:21:01.592Z,1.73
2022-10-17T13:23:33.242Z,1.90
2022-10-17T13:26:20.332Z,2.28
2022-10-17T13:29:01.649Z,2.15
2022-10-17T13:31:32.986Z,2.10
2022-10-17T13:34:04.245Z,2.28
2022-10-17T13:36:33.906Z,1.75
2022-10-17T13:39:13.128Z,1.85
2022-10-17T13:41:44.317Z,2.25
2022-10-17T13:44:18.667Z,1.77
2022-10-17T13:46:53.724Z,2.13
2022-10-17T13:49:25.985Z,1.80
2022-10-17T13:51:57.881Z,2.22
2022-10-17T13:54:44.809Z,2.13
2022-10-17T13:57:24.160Z,1.90
2022-10-17T13:59:54.956Z,1.73
2022-10-17T14:02:27.742Z,1.70
2022-10-17T14:05:19.474Z,2.00
2022-10-17T14:10:42.358Z,2.00
2022-10-17T14:13:23.099Z,1.90
2022-10-17T14:15:51.603Z,2.00
2022-10-17T14:18:22.539Z,2.10
2022-10-17T14:23:41.552Z,1.73
2022-10-17T14:26:17.056Z,2.30
2022-10-17T14:28:49.303Z,2.10
2022-10-17T14:31:25.382Z,2.20
2022-10-17T14:33:54.673Z,2.25
2022-10-17T14:36:32.336Z,2.10
2022-10-17T14:39:01.794Z,1.88
2022-10-17T14:41:48.621Z,2.20
2022-10-17T14:44:25.800Z,1.98
2022-10-17T14:47:00.198Z,1.92
2022-10-17T14:49:36.190Z,1.95
2022-10-17T14:52:27.241Z,2.10
2022-10-17T14:54:55.449Z,2.05
2022-10-17T14:57:29.232Z,2.25
2022-10-17T14:59:58.863Z,2.67
2022-10-17T15:02:28.673Z,1.90
2022-10-17T15:04:56.685Z,1.95
2022-10-17T15:07:24.595Z,1.90
2022-10-17T15:09:53.921Z,2.30
2022-10-17T15:12:25.124Z,2.08
2022-10-17T15:14:54.068Z,2.03
2022-10-17T15:17:26.985Z,2.40
2022-10-17T15:19:55.302Z,2.10
2022-10-17T15:22:23.370Z,2.08
2022-10-17T15:24:51.299Z,2.20
2022-10-17T15:27:21.170Z,1.90
2022-10-17T15:29:49.533Z,2.15
2022-10-17T15:32:17.575Z,1.98
2022-10-17T15:34:46.645Z,1.90
2022-10-17T15:37:22.239Z,2.10
2022-10-17T15:39:53.472Z,2.00
2022-10-17T15:42:22.400Z,1.92
2022-10-17T15:44:50.468Z,1.83
2022-10-17T15:47:25.223Z,1.90
2022-10-17T15:49:54.440Z,1.83
2022-10-17T15:52:22.696Z,2.28
2022-10-17T15:54:50.721Z,2.00
2022-10-17T15:57:20.344Z,2.38
2022-10-17T15:59:49.103Z,2.33
2022-10-17T16:02:20.180Z,3.00
2022-10-17T16:04:49.325Z,2.67
2022-10-17T16:07:18.948Z,6.40
2022-10-17T16:09:46.889Z,6.43
2022-10-17T16:12:17.862Z,5.80
2022-10-17T16:14:45.629Z,4.47
2022-10-17T16:17:15.707Z,3.95
2022-10-17T16:19:43.747Z,3.70
2022-10-17T16:22:32.014Z,3.17
2022-10-17T16:25:07.595Z,3.13
2022-10-17T16:27:35.240Z,3.63
2022-10-17T16:30:03.037Z,3.13
2022-10-17T16:32:30.753Z,3.53
2022-10-17T16:34:59.830Z,3.30
2022-10-17T16:37:28.801Z,3.38
2022-10-17T16:39:56.405Z,3.35
2022-10-17T16:42:24.375Z,3.38
2022-10-17T16:44:52.576Z,3.88
2022-10-17T16:47:20.649Z,3.42
2022-10-17T16:49:48.795Z,3.25
2022-10-17T16:52:16.718Z,3.30
2022-10-17T16:54:45.795Z,3.80
2022-10-17T16:57:13.627Z,3.10
2022-10-17T16:59:41.371Z,3.15
2022-10-17T17:02:12.008Z,2.75
2022-10-17T17:04:42.742Z,3.08
2022-10-17T17:07:10.631Z,3.20
2022-10-17T17:09:40.636Z,2.88
2022-10-17T17:12:09.819Z,2.80
2022-10-17T17:14:38.041Z,2.78
2022-10-17T17:17:07.648Z,2.97
2022-10-17T17:19:40.112Z,3.15
2022-10-17T17:22:08.050Z,2.78
2022-10-17T17:24:35.795Z,2.90
2022-10-17T17:27:03.473Z,2.80
2022-10-17T17:29:32.537Z,2.63
2022-10-17T17:32:00.205Z,2.97
2022-10-17T17:34:27.848Z,2.80
2022-10-17T17:36:57.457Z,2.83
2022-10-17T17:39:25.168Z,2.55
2022-10-17T17:41:52.807Z,3.25
2022-10-17T17:44:20.412Z,3.75
2022-10-17T17:46:49.412Z,4.40
2022-10-17T17:49:17.054Z,4.30
2022-10-17T17:51:46.571Z,4.60
2022-10-17T17:54:15.104Z,4.60
2022-10-17T17:56:42.935Z,5.30
2022-10-17T17:59:13.714Z,4.70
2022-10-17T18:01:41.810Z,4.93
2022-10-17T18:04:16.213Z,6.28
2022-10-17T18:06:44.039Z,19.98
2022-10-17T18:09:11.975Z,11.32
2022-10-17T18:11:39.915Z,6.82
2022-10-17T18:14:11.520Z,13.45
2022-10-17T18:16:39.575Z,8.53
2022-10-17T18:19:09.601Z,5.32
2022-10-17T18:21:38.951Z,6.97
2022-10-17T18:24:07.349Z,5.05
2022-10-17T18:26:35.039Z,4.45
2022-10-17T18:29:02.898Z,14.00
2022-10-17T18:31:35.469Z,15.05
2022-10-17T18:34:04.919Z,13.88
2022-10-17T18:36:34.931Z,6.30
2022-10-17T18:39:05.510Z,5.35
2022-10-17T18:41:33.975Z,5.07
2022-10-17T18:44:02.841Z,5.35
2022-10-17T18:46:35.584Z,4.72
2022-10-17T18:49:03.520Z,5.20
2022-10-17T18:51:31.097Z,6.32
2022-10-17T18:53:59.433Z,5.97
2022-10-17T18:56:28.451Z,5.43
2022-10-17T18:58:56.842Z,4.13
2022-10-17T19:01:26.508Z,4.28
2022-10-17T19:03:56.032Z,4.22
2022-10-17T19:06:26.160Z,4.72
2022-10-17T19:08:53.973Z,4.28
2022-10-17T19:11:23.347Z,5.20
2022-10-17T19:13:53.333Z,4.93
2022-10-17T19:16:22.880Z,4.85
2022-10-17T19:18:51.978Z,4.53
2022-10-17T19:21:21.951Z,4.53
2022-10-17T19:23:52.212Z,5.00
2022-10-17T19:26:21.315Z,4.63
2022-10-17T19:28:51.469Z,5.25
2022-10-17T19:31:25.576Z,4.25
2022-10-17T19:33:54.701Z,3.83
2022-10-17T19:36:27.546Z,3.85
2022-10-17T19:38:58.689Z,3.83
2022-10-17T19:41:27.025Z,4.30
2022-10-17T19:43:54.898Z,4.15
2022-10-17T19:46:27.078Z,3.88
2022-10-17T19:48:54.918Z,4.18
2022-10-17T19:51:24.919Z,4.55
2022-10-17T19:53:53.873Z,3.90
2022-10-17T19:56:22.397Z,4.05
2022-10-17T19:58:56.163Z,4.53
2022-10-17T20:01:26.837Z,4.00
2022-10-17T20:03:56.311Z,4.40
2022-10-17T20:06:24.150Z,4.22
2022-10-17T20:08:51.954Z,4.07
2022-10-17T20:11:22.220Z,4.60
2022-10-17T20:13:52.667Z,4.78
2022-10-17T20:16:23.375Z,6.13
2022-10-17T20:18:54.528Z,5.45
2022-10-17T20:21:24.708Z,5.32
2022-10-17T20:23:52.514Z,4.78
2022-10-17T20:26:37.505Z,3.72
2022-10-17T20:29:10.711Z,3.83
2022-10-17T20:31:38.877Z,4.60
2022-10-17T20:34:08.040Z,4.35
2022-10-17T20:36:37.386Z,4.50
2022-10-17T20:39:07.206Z,4.80
2022-10-17T20:41:34.993Z,4.20
2022-10-17T20:44:02.646Z,4.25
2022-10-17T20:46:36.948Z,4.80
2022-10-17T20:49:07.700Z,4.28
2022-10-17T20:51:36.331Z,6.50
2022-10-17T20:54:04.412Z,7.25
2022-10-17T20:56:33.790Z,5.45
2022-10-17T20:59:04.553Z,5.25
2022-10-17T21:01:35.464Z,5.10
2022-10-17T21:04:27.165Z,5.63
2022-10-17T21:06:53.593Z,5.43
2022-10-17T21:09:24.643Z,5.03
2022-10-17T21:11:55.257Z,5.90
2022-10-17T21:14:27.487Z,5.80
2022-10-17T21:16:56.003Z,5.65
2022-10-17T21:19:25.318Z,5.60
2022-10-17T21:21:54.388Z,5.47
2022-10-17T21:24:23.711Z,5.82
2022-10-17T21:26:55.729Z,4.90
2022-10-17T21:29:25.679Z,5.00
2022-10-17T21:31:53.620Z,4.85
2022-10-17T21:34:24.422Z,5.20
2022-10-17T21:36:54.063Z,5.43
2022-10-17T21:39:24.270Z,5.20
2022-10-17T21:41:52.555Z,4.95
2022-10-17T21:44:23.297Z,4.57
2022-10-17T21:46:51.492Z,4.63
2022-10-17T21:49:20.432Z,4.22
2022-10-17T21:51:48.881Z,4.25
2022-10-17T21:54:23.581Z,4.43
2022-10-17T21:56:53.904Z,4.40
2022-10-17T21:59:21.740Z,4.20
2022-10-17T22:01:49.660Z,4.55
2022-10-17T22:04:19.043Z,4.72
2022-10-17T22:06:50.943Z,4.65
2022-10-17T22:09:23.214Z,4.68
2022-10-17T22:11:54.024Z,4.80
2022-10-17T22:14:24.161Z,5.53
2022-10-17T22:16:53.347Z,4.78
2022-10-17T22:19:25.087Z,4.95
2022-10-17T22:21:53.831Z,4.50
2022-10-17T22:24:24.713Z,4.47
2022-10-17T22:26:52.659Z,4.15
2022-10-17T22:29:21.135Z,4.78
2022-10-17T22:31:51.184Z,3.72
2022-10-17T22:34:19.659Z,4.90
2022-10-17T22:36:47.813Z,4.63
2022-10-17T22:39:18.088Z,4.25
2022-10-17T22:41:47.370Z,4.38
2022-10-17T22:44:15.143Z,4.55
2022-10-17T22:46:45.830Z,4.50
2022-10-17T22:49:13.679Z,5.53
2022-10-17T22:51:41.469Z,5.68
2022-10-17T22:54:09.386Z,5.70
2022-10-17T22:56:37.209Z,5.43
2022-10-17T22:59:06.285Z,6.53
2022-10-17T23:01:34.246Z,9.85
2022-10-17T23:04:03.880Z,5.38
2022-10-17T23:06:31.655Z,5.15
2022-10-17T23:09:02.588Z,5.35
2022-10-17T23:11:32.745Z,4.82
2022-10-17T23:14:02.561Z,4.97
2022-10-17T23:16:31.795Z,5.50
2022-10-17T23:18:59.687Z,4.05
2022-10-17T23:21:31.897Z,7.00
2022-10-17T23:24:01.580Z,7.35
2022-10-17T23:26:30.634Z,5.20
2022-10-17T23:28:58.330Z,5.18
2022-10-17T23:31:26.282Z,8.40
2022-10-17T23:33:55.380Z,10.38
2022-10-17T23:36:29.576Z,5.95
2022-10-17T23:38:59.011Z,4.93
2022-10-17T23:41:26.813Z,5.30
2022-10-17T23:43:54.643Z,5.47
2022-10-17T23:46:22.469Z,5.32
2022-10-17T23:48:50.271Z,4.95
2022-10-17T23:51:22.253Z,4.68
2022-10-17T23:53:50.297Z,4.20
2022-10-17T23:56:18.481Z,4.18
2022-10-17T23:58:47.288Z,4.55
